createdAt,value
2019-02-08T00:00:20.299Z,69.20
2019-02-08T00:02:48.643Z,69.00
2019-02-08T00:05:17.542Z,68.90
2019-02-08T00:07:45.815Z,68.90
2019-02-08T00:10:16.379Z,68.40
2019-02-08T00:12:44.656Z,69.00
2019-02-08T00:15:16.383Z,68.70
2019-02-08T00:17:43.976Z,68.90
2019-02-08T00:20:14.867Z,68.70
2019-02-08T00:22:43.249Z,68.80
2019-02-08T00:25:16.522Z,68.90
2019-02-08T00:27:44.779Z,68.80
2019-02-08T00:30:40.324Z,68.60
2019-02-08T00:33:08.675Z,69.00
2019-02-08T00:35:37.008Z,69.10
2019-02-08T00:38:05.254Z,69.20
2019-02-08T00:40:33.524Z,69.30
2019-02-08T00:43:01.790Z,69.40
2019-02-08T00:45:30.127Z,69.30
2019-02-08T00:47:58.410Z,69.40
2019-02-08T00:50:30.448Z,69.50
2019-02-08T00:52:58.722Z,69.40
2019-02-08T00:55:26.982Z,69.50
2019-02-08T00:57:55.728Z,69.50
2019-02-08T01:00:23.983Z,69.60
2019-02-08T01:02:53.471Z,69.70
2019-02-08T01:05:23.038Z,69.40
2019-02-08T01:07:51.836Z,70.20
2019-02-08T01:10:22.694Z,69.40
2019-02-08T01:12:50.974Z,69.40
2019-02-08T01:15:20.870Z,69.30
2019-02-08T01:17:49.223Z,69.50
2019-02-08T01:20:19.515Z,69.60
2019-02-08T01:22:47.849Z,69.40
2019-02-08T01:25:20.846Z,69.50
2019-02-08T01:27:49.119Z,69.40
2019-02-08T01:30:20.175Z,69.20
2019-02-08T01:32:47.738Z,69.20
2019-02-08T01:35:17.452Z,68.70
2019-02-08T01:37:45.742Z,69.40
2019-02-08T01:40:19.293Z,69.40
2019-02-08T01:42:47.574Z,69.40
2019-02-08T01:45:18.738Z,69.60
2019-02-08T01:47:46.994Z,69.70
2019-02-08T01:50:17.790Z,69.70
2019-02-08T01:52:46.043Z,69.70
2019-02-08T01:55:14.830Z,69.70
2019-02-08T01:57:43.103Z,69.70
2019-02-08T02:00:17.819Z,69.70
2019-02-08T02:02:46.222Z,69.80
2019-02-08T02:05:14.494Z,69.80
2019-02-08T02:07:42.805Z,69.70
2019-02-08T02:10:15.167Z,69.80
2019-02-08T02:12:43.421Z,69.70
2019-02-08T02:15:11.700Z,69.60
2019-02-08T02:17:39.978Z,69.70
2019-02-08T02:20:14.372Z,69.70
2019-02-08T02:22:42.712Z,69.70
2019-02-08T02:25:11.034Z,69.70
2019-02-08T02:27:39.301Z,69.50
2019-02-08T02:30:10.853Z,69.60
2019-02-08T02:32:39.102Z,69.70
2019-02-08T02:35:10.715Z,69.60
2019-02-08T02:37:38.971Z,69.70
2019-02-08T02:40:10.247Z,69.70
2019-02-08T02:42:38.527Z,69.60
2019-02-08T02:45:15.887Z,69.60
2019-02-08T02:47:44.183Z,69.70
2019-02-08T02:50:13.297Z,69.70
2019-02-08T02:52:41.579Z,69.90
2019-02-08T02:55:13.447Z,69.60
2019-02-08T02:57:41.706Z,69.70
2019-02-08T03:00:22.160Z,69.40
2019-02-08T03:02:50.414Z,69.60
2019-02-08T03:05:18.691Z,69.60
2019-02-08T03:07:46.946Z,69.80
2019-02-08T03:10:18.220Z,69.60
2019-02-08T03:12:46.523Z,69.90
2019-02-08T03:15:17.307Z,70.00
2019-02-08T03:17:45.582Z,69.70
2019-02-08T03:20:16.175Z,69.70
2019-02-08T03:22:44.444Z,69.90
2019-02-08T03:25:15.760Z,69.90
2019-02-08T03:27:44.023Z,69.90
2019-02-08T03:30:19.041Z,69.90
2019-02-08T03:32:47.386Z,69.90
2019-02-08T03:35:18.907Z,69.90
2019-02-08T03:37:47.249Z,69.90
2019-02-08T03:40:29.627Z,69.90
2019-02-08T03:42:57.973Z,69.80
2019-02-08T03:45:27.953Z,69.80
2019-02-08T03:47:56.238Z,69.80
2019-02-08T03:50:24.958Z,69.70
2019-02-08T03:52:54.066Z,69.70
2019-02-08T03:55:22.975Z,69.70
2019-02-08T03:57:51.236Z,69.70
2019-02-08T04:00:23.282Z,69.50
2019-02-08T04:02:51.549Z,69.70
2019-02-08T04:05:19.835Z,69.70
2019-02-08T04:07:48.117Z,69.60
2019-02-08T04:10:20.308Z,69.70
2019-02-08T04:12:48.571Z,69.40
2019-02-08T04:15:18.878Z,69.30
2019-02-08T04:17:47.145Z,69.30
2019-02-08T04:20:17.143Z,70.00
2019-02-08T04:22:45.503Z,69.30
2019-02-08T04:25:15.991Z,69.60
2019-02-08T04:27:44.262Z,69.40
2019-02-08T04:30:32.219Z,69.40
2019-02-08T04:33:01.742Z,69.40
2019-02-08T04:35:29.996Z,69.30
2019-02-08T04:37:58.291Z,69.20
2019-02-08T04:40:27.486Z,69.30
2019-02-08T04:42:55.756Z,69.30
2019-02-08T04:45:24.014Z,69.60
2019-02-08T04:47:52.314Z,69.50
2019-02-08T04:50:25.641Z,69.60
2019-02-08T04:52:53.907Z,69.50
2019-02-08T04:55:22.200Z,69.60
2019-02-08T04:57:50.522Z,69.80
2019-02-08T05:00:22.032Z,70.00
2019-02-08T05:02:50.279Z,70.00
2019-02-08T05:05:18.539Z,70.00
2019-02-08T05:07:46.819Z,69.90
2019-02-08T05:10:20.977Z,70.00
2019-02-08T05:12:49.605Z,70.20
2019-02-08T05:15:18.548Z,70.10
2019-02-08T05:17:46.803Z,70.20
2019-02-08T05:20:18.330Z,70.10
2019-02-08T05:22:46.592Z,70.10
2019-02-08T05:25:15.182Z,70.00
2019-02-08T05:27:43.479Z,70.20
2019-02-08T05:30:23.576Z,70.10
2019-02-08T05:32:51.862Z,70.10
2019-02-08T05:35:20.193Z,70.00
2019-02-08T05:37:48.462Z,70.10
2019-02-08T05:40:19.311Z,70.10
2019-02-08T05:42:47.687Z,70.00
2019-02-08T05:45:18.474Z,70.00
2019-02-08T05:47:46.731Z,69.90
2019-02-08T05:50:25.974Z,69.80
2019-02-08T05:52:54.299Z,69.60
2019-02-08T05:55:28.535Z,69.70
2019-02-08T05:57:56.850Z,69.40
2019-02-08T06:00:29.102Z,69.60
2019-02-08T06:02:57.455Z,69.40
2019-02-08T06:05:25.912Z,69.40
2019-02-08T06:07:54.177Z,69.60
2019-02-08T06:10:22.430Z,69.30
2019-02-08T06:12:50.681Z,69.30
2019-02-08T06:15:25.691Z,69.40
2019-02-08T06:17:54.102Z,69.40
2019-02-08T06:20:24.614Z,69.20
2019-02-08T06:22:52.867Z,69.30
2019-02-08T06:25:21.994Z,69.30
2019-02-08T06:27:50.408Z,69.20
2019-02-08T06:30:21.897Z,69.20
2019-02-08T06:32:50.151Z,69.20
2019-02-08T06:35:19.748Z,69.10
2019-02-08T06:37:48.016Z,69.00
2019-02-08T06:40:19.369Z,68.80
2019-02-08T06:42:47.641Z,68.90
2019-02-08T06:45:18.443Z,68.90
2019-02-08T06:47:46.707Z,69.00
2019-02-08T06:50:17.602Z,69.00
2019-02-08T06:52:45.878Z,69.20
2019-02-08T06:55:14.176Z,69.10
2019-02-08T06:57:44.073Z,69.40
2019-02-08T07:00:25.135Z,69.00
2019-02-08T07:02:57.998Z,69.00
2019-02-08T07:05:27.925Z,68.90
2019-02-08T07:08:14.272Z,69.10
2019-02-08T07:10:44.197Z,68.90
2019-02-08T07:13:20.219Z,68.60
2019-02-08T07:15:50.126Z,68.80
2019-02-08T07:18:23.029Z,68.70
2019-02-08T07:21:11.108Z,68.70
2019-02-08T07:23:41.006Z,68.60
2019-02-08T07:26:27.351Z,68.30
2019-02-08T07:28:57.251Z,68.20
2019-02-08T07:31:29.952Z,68.50
2019-02-08T07:34:08.354Z,68.40
2019-02-08T07:36:54.343Z,68.30
2019-02-08T07:39:25.383Z,68.30
2019-02-08T07:42:11.491Z,68.10
2019-02-08T07:44:49.962Z,68.70
2019-02-08T07:47:22.527Z,68.20
2019-02-08T07:49:52.450Z,68.30
2019-02-08T07:52:28.222Z,68.30
2019-02-08T07:55:14.670Z,68.70
2019-02-08T07:58:00.429Z,68.00
2019-02-08T08:00:33.653Z,68.20
2019-02-08T08:03:28.679Z,68.10
2019-02-08T08:06:07.653Z,68.10
2019-02-08T08:08:54.021Z,68.20
2019-02-08T08:11:29.930Z,67.90
2019-02-08T08:13:59.819Z,68.00
2019-02-08T08:16:46.186Z,67.80
2019-02-08T08:19:20.907Z,67.90
2019-02-08T08:21:59.827Z,67.90
2019-02-08T08:24:40.019Z,67.60
2019-02-08T08:27:26.091Z,67.30
2019-02-08T08:29:56.000Z,67.60
2019-02-08T08:32:26.638Z,67.40
2019-02-08T08:35:15.474Z,67.50
2019-02-08T08:38:04.860Z,67.70
2019-02-08T08:40:52.962Z,67.70
2019-02-08T08:43:27.252Z,67.70
2019-02-08T08:46:13.806Z,67.70
2019-02-08T08:48:56.597Z,67.60
2019-02-08T08:51:46.387Z,67.60
2019-02-08T08:54:30.002Z,67.70
2019-02-08T08:57:22.663Z,67.70
2019-02-08T09:00:19.955Z,68.50
2019-02-08T09:02:54.035Z,68.00
2019-02-08T09:05:25.563Z,68.10
2019-02-08T09:08:31.839Z,68.00
2019-02-08T09:11:18.223Z,68.30
2019-02-08T09:14:23.034Z,68.30
2019-02-08T09:17:00.658Z,68.10
2019-02-08T09:19:48.669Z,68.30
2019-02-08T09:22:44.083Z,68.50
2019-02-08T09:25:33.384Z,67.90
2019-02-08T09:28:10.583Z,68.10
2019-02-08T09:30:56.892Z,68.30
2019-02-08T09:33:49.371Z,68.50
2019-02-08T09:36:38.894Z,68.50
2019-02-08T09:39:19.613Z,68.70
2019-02-08T09:41:53.835Z,68.60
2019-02-08T09:44:43.327Z,68.60
2019-02-08T09:47:29.599Z,68.70
2019-02-08T09:50:18.982Z,68.70
2019-02-08T09:52:59.183Z,68.90
2019-02-08T09:55:45.516Z,69.00
2019-02-08T09:58:34.765Z,69.20
2019-02-08T10:01:20.960Z,69.30
2019-02-08T10:04:00.862Z,69.50
2019-02-08T10:06:43.639Z,69.70
2019-02-08T10:09:39.120Z,69.80
2019-02-08T10:12:37.867Z,70.20
2019-02-08T10:15:12.032Z,70.30
2019-02-08T10:17:49.286Z,70.60
2019-02-08T10:20:41.230Z,71.00
2019-02-08T10:23:56.086Z,71.20
2019-02-08T10:26:45.600Z,71.40
2019-02-08T10:29:44.191Z,71.60
2019-02-08T10:32:24.462Z,71.60
2019-02-08T10:35:18.374Z,71.90
2019-02-08T10:38:27.055Z,72.00
2019-02-08T10:41:06.919Z,71.90
2019-02-08T10:44:03.870Z,71.90
2019-02-08T10:47:10.451Z,72.10
2019-02-08T10:50:01.554Z,72.30
2019-02-08T10:52:45.746Z,72.50
2019-02-08T10:55:51.942Z,72.60
2019-02-08T10:58:38.134Z,72.90
2019-02-08T11:01:28.548Z,73.20
2019-02-08T11:04:22.464Z,73.40
2019-02-08T11:07:28.163Z,73.50
2019-02-08T11:10:19.355Z,73.70
2019-02-08T11:13:16.230Z,73.90
2019-02-08T11:16:20.943Z,74.00
2019-02-08T11:19:15.982Z,74.00
2019-02-08T11:21:44.623Z,74.60
2019-02-08T11:24:12.876Z,73.90
2019-02-08T11:26:41.191Z,73.90
2019-02-08T11:29:09.483Z,73.80
2019-02-08T11:31:37.802Z,73.70
2019-02-08T11:34:06.577Z,73.50
2019-02-08T11:36:34.833Z,73.60
2019-02-08T11:39:03.188Z,73.40
2019-02-08T11:41:31.515Z,73.40
2019-02-08T11:43:59.792Z,73.30
2019-02-08T11:46:28.055Z,73.00
2019-02-08T11:48:56.343Z,73.20
2019-02-08T11:51:25.527Z,73.10
2019-02-08T11:53:53.799Z,72.80
2019-02-08T11:56:22.050Z,72.80
2019-02-08T11:58:50.335Z,72.70
2019-02-08T12:01:18.586Z,72.60
2019-02-08T12:03:46.850Z,72.50
2019-02-08T12:06:15.103Z,71.80
2019-02-08T12:08:43.374Z,71.80
2019-02-08T12:11:11.631Z,71.90
2019-02-08T12:13:40.161Z,71.50
2019-02-08T12:16:08.448Z,71.80
2019-02-08T12:18:36.711Z,71.20
2019-02-08T12:21:05.007Z,70.80
2019-02-08T12:23:33.262Z,70.80
2019-02-08T12:26:01.568Z,70.80
2019-02-08T12:28:29.872Z,70.70
2019-02-08T12:30:58.136Z,70.80
2019-02-08T12:33:26.414Z,70.40
2019-02-08T12:35:54.672Z,71.10
2019-02-08T12:38:22.963Z,70.40
2019-02-08T12:40:51.247Z,70.10
2019-02-08T12:43:19.575Z,69.90
2019-02-08T12:45:47.822Z,69.80
2019-02-08T12:48:16.096Z,69.60
2019-02-08T12:50:44.351Z,69.70
2019-02-08T12:53:12.624Z,69.50
2019-02-08T12:55:40.876Z,69.60
2019-02-08T12:58:09.143Z,69.50
2019-02-08T13:00:37.410Z,69.70
2019-02-08T13:03:05.667Z,69.80
2019-02-08T13:05:33.943Z,70.00
2019-02-08T13:08:02.275Z,70.20
2019-02-08T13:10:30.710Z,70.40
2019-02-08T13:12:58.967Z,70.60
2019-02-08T13:15:27.279Z,70.80
2019-02-08T13:17:55.934Z,71.00
2019-02-08T13:20:24.823Z,71.30
2019-02-08T13:22:53.159Z,71.40
2019-02-08T13:25:21.418Z,71.60
2019-02-08T13:27:49.694Z,71.70
2019-02-08T13:30:26.950Z,71.80
2019-02-08T13:32:55.206Z,71.90
2019-02-08T13:35:23.462Z,72.00
2019-02-08T13:37:51.733Z,72.10
2019-02-08T13:40:41.026Z,72.20
2019-02-08T13:43:28.726Z,72.20
2019-02-08T13:45:57.057Z,72.40
2019-02-08T13:48:25.335Z,72.40
2019-02-08T13:50:53.613Z,72.60
2019-02-08T13:53:21.921Z,72.70
2019-02-08T13:55:50.214Z,72.60
2019-02-08T13:58:18.582Z,72.70
2019-02-08T14:00:46.841Z,72.60
2019-02-08T14:03:15.119Z,72.60
2019-02-08T14:05:43.371Z,72.50
2019-02-08T14:08:11.626Z,72.40
2019-02-08T14:10:39.898Z,71.90
2019-02-08T14:13:08.155Z,72.10
2019-02-08T14:15:36.427Z,71.80
2019-02-08T14:18:04.747Z,71.40
2019-02-08T14:20:33.027Z,71.50
2019-02-08T14:23:01.287Z,71.00
2019-02-08T14:25:29.562Z,70.80
2019-02-08T14:27:57.827Z,70.80
2019-02-08T14:30:37.513Z,70.60
2019-02-08T14:33:05.779Z,70.40
2019-02-08T14:35:34.621Z,69.70
2019-02-08T14:38:04.701Z,69.80
2019-02-08T14:40:32.964Z,69.50
2019-02-08T14:43:01.237Z,69.20
2019-02-08T14:45:29.488Z,68.50
2019-02-08T14:47:57.786Z,68.60
2019-02-08T14:50:29.997Z,68.40
2019-02-08T14:52:58.469Z,67.90
2019-02-08T14:55:27.004Z,68.20
2019-02-08T14:57:58.162Z,68.30
2019-02-08T15:00:26.434Z,67.40
2019-02-08T15:02:54.715Z,67.70
2019-02-08T15:05:23.439Z,67.50
2019-02-08T15:07:51.834Z,67.60
2019-02-08T15:10:23.183Z,67.60
2019-02-08T15:12:51.443Z,67.20
2019-02-08T15:15:19.761Z,67.20
2019-02-08T15:17:48.199Z,67.50
2019-02-08T15:20:28.587Z,67.10
2019-02-08T15:22:56.838Z,67.30
2019-02-08T15:25:25.142Z,67.60
2019-02-08T15:27:53.393Z,67.80
2019-02-08T15:30:30.912Z,68.10
2019-02-08T15:32:59.172Z,68.40
2019-02-08T15:35:31.603Z,68.60
2019-02-08T15:37:59.982Z,68.80
2019-02-08T15:40:37.128Z,69.10
2019-02-08T15:43:06.062Z,69.40
2019-02-08T15:45:34.482Z,69.50
2019-02-08T15:48:02.847Z,69.60
2019-02-08T15:50:31.194Z,69.90
2019-02-08T15:52:59.567Z,70.00
2019-02-08T15:55:36.599Z,70.10
2019-02-08T15:58:04.961Z,70.20
2019-02-08T16:00:33.287Z,70.20
2019-02-08T16:03:01.558Z,70.30
2019-02-08T16:05:31.063Z,70.50
2019-02-08T16:07:59.323Z,70.50
2019-02-08T16:10:27.655Z,70.70
2019-02-08T16:12:55.914Z,70.80
2019-02-08T16:15:29.148Z,70.80
2019-02-08T16:17:57.426Z,71.00
2019-02-08T16:20:29.023Z,71.00
2019-02-08T16:22:59.175Z,71.10
2019-02-08T16:25:29.656Z,71.10
2019-02-08T16:27:58.226Z,71.20
2019-02-08T16:30:31.749Z,71.30
2019-02-08T16:33:00.284Z,71.30
2019-02-08T16:35:29.022Z,71.40
2019-02-08T16:37:57.280Z,71.50
2019-02-08T16:40:27.602Z,71.30
2019-02-08T16:42:55.898Z,71.50
2019-02-08T16:45:30.036Z,71.70
2019-02-08T16:47:58.428Z,71.70
2019-02-08T16:50:29.195Z,71.90
2019-02-08T16:52:57.443Z,71.80
2019-02-08T16:55:25.702Z,72.00
2019-02-08T16:57:53.971Z,71.80
2019-02-08T17:00:31.467Z,72.00
2019-02-08T17:03:01.722Z,71.80
2019-02-08T17:05:30.743Z,71.90
2019-02-08T17:07:59.363Z,71.80
2019-02-08T17:10:27.633Z,71.80
2019-02-08T17:12:55.929Z,71.70
2019-02-08T17:15:31.582Z,71.70
2019-02-08T17:17:59.858Z,71.50
2019-02-08T17:20:33.040Z,71.50
2019-02-08T17:23:01.283Z,71.10
2019-02-08T17:25:30.567Z,71.10
2019-02-08T17:27:58.969Z,71.10
2019-02-08T17:30:27.245Z,71.00
2019-02-08T17:32:55.510Z,70.90
2019-02-08T17:35:26.084Z,70.50
2019-02-08T17:37:54.351Z,70.40
2019-02-08T17:40:25.859Z,70.30
2019-02-08T17:42:54.160Z,70.20
2019-02-08T17:45:22.478Z,70.10
2019-02-08T17:47:51.595Z,70.20
2019-02-08T17:50:22.086Z,69.30
2019-02-08T17:52:50.359Z,69.70
2019-02-08T17:55:25.795Z,69.40
2019-02-08T17:57:54.616Z,69.50
2019-02-08T18:00:47.617Z,69.00
2019-02-08T18:03:15.879Z,69.10
2019-02-08T18:05:44.234Z,68.90
2019-02-08T18:08:12.563Z,69.10
2019-02-08T18:10:40.837Z,68.70
2019-02-08T18:13:09.098Z,68.80
2019-02-08T18:15:37.363Z,69.10
2019-02-08T18:18:08.383Z,68.30
2019-02-08T18:20:42.230Z,68.50
2019-02-08T18:23:10.509Z,68.20
2019-02-08T18:25:38.775Z,68.20
2019-02-08T18:28:11.029Z,67.80
2019-02-08T18:30:37.662Z,66.80
2019-02-08T18:33:05.939Z,67.20
2019-02-08T18:35:34.210Z,67.00
2019-02-08T18:38:02.493Z,66.80
2019-02-08T18:40:30.759Z,66.90
2019-02-08T18:42:59.039Z,67.20
2019-02-08T18:45:37.932Z,66.60
2019-02-08T18:48:06.753Z,66.80
2019-02-08T18:51:09.205Z,66.80
2019-02-08T18:53:37.464Z,67.10
2019-02-08T18:56:05.715Z,66.60
2019-02-08T18:58:33.996Z,66.20
2019-02-08T19:01:02.273Z,67.30
2019-02-08T19:03:30.534Z,66.50
2019-02-08T19:05:58.799Z,66.50
2019-02-08T19:08:27.075Z,66.30
2019-02-08T19:10:55.326Z,66.10
2019-02-08T19:13:24.240Z,65.70
2019-02-08T19:15:52.505Z,65.40
2019-02-08T19:18:20.761Z,65.40
2019-02-08T19:20:49.036Z,65.10
2019-02-08T19:23:17.379Z,64.70
2019-02-08T19:25:46.404Z,65.00
2019-02-08T19:28:27.063Z,65.20
2019-02-08T19:30:55.347Z,64.70
2019-02-08T19:33:23.611Z,64.80
2019-02-08T19:35:51.880Z,65.20
2019-02-08T19:38:20.504Z,64.60
2019-02-08T19:40:48.791Z,64.90
2019-02-08T19:43:17.075Z,63.70
2019-02-08T19:45:45.416Z,64.30
2019-02-08T19:48:13.666Z,64.10
2019-02-08T19:50:44.519Z,63.90
2019-02-08T19:53:12.793Z,64.20
2019-02-08T19:55:41.069Z,64.30
2019-02-08T19:58:10.190Z,64.60
2019-02-08T20:00:40.595Z,64.30
2019-02-08T20:03:09.512Z,63.90
2019-02-08T20:05:37.769Z,64.00
2019-02-08T20:08:06.890Z,63.60
2019-02-08T20:10:38.002Z,63.70
2019-02-08T20:13:06.292Z,63.70
2019-02-08T20:15:34.563Z,64.10
2019-02-08T20:18:02.849Z,64.50
2019-02-08T20:20:31.115Z,63.70
2019-02-08T20:22:59.417Z,63.70
2019-02-08T20:25:30.488Z,64.10
2019-02-08T20:27:58.755Z,63.60
2019-02-08T20:30:29.338Z,64.00
2019-02-08T20:32:57.662Z,63.40
2019-02-08T20:35:27.070Z,63.40
2019-02-08T20:37:55.977Z,63.60
2019-02-08T20:40:36.122Z,63.10
2019-02-08T20:43:04.389Z,63.60
2019-02-08T20:45:33.796Z,63.40
2019-02-08T20:48:04.899Z,63.70
2019-02-08T20:50:33.156Z,63.60
2019-02-08T20:53:02.374Z,63.50
2019-02-08T20:55:30.642Z,63.40
2019-02-08T20:58:00.542Z,63.30
2019-02-08T21:00:34.958Z,63.30
2019-02-08T21:03:04.945Z,62.90
2019-02-08T21:05:33.204Z,62.80
2019-02-08T21:08:01.553Z,62.80
2019-02-08T21:10:30.098Z,62.70
2019-02-08T21:12:58.369Z,62.70
2019-02-08T21:15:26.630Z,62.70
2019-02-08T21:17:54.898Z,62.10
2019-02-08T21:20:23.283Z,62.40
2019-02-08T21:22:51.547Z,62.40
2019-02-08T21:25:36.834Z,62.40
2019-02-08T21:28:05.427Z,62.10
2019-02-08T21:30:33.705Z,62.40
2019-02-08T21:33:01.967Z,62.10
2019-02-08T21:35:30.235Z,62.10
2019-02-08T21:37:58.487Z,62.50
2019-02-08T21:40:28.405Z,62.30
2019-02-08T21:42:57.374Z,62.70
2019-02-08T21:45:30.704Z,62.40
2019-02-08T21:47:58.980Z,62.40
2019-02-08T21:50:27.301Z,62.00
2019-02-08T21:52:55.571Z,62.40
2019-02-08T21:55:25.843Z,62.00
2019-02-08T21:57:54.110Z,62.00
2019-02-08T22:00:26.936Z,61.80
2019-02-08T22:02:55.479Z,61.60
2019-02-08T22:05:28.783Z,61.70
2019-02-08T22:07:57.077Z,61.70
2019-02-08T22:10:25.335Z,62.00
2019-02-08T22:12:53.603Z,62.00
2019-02-08T22:15:27.585Z,62.00
2019-02-08T22:17:55.908Z,61.70
2019-02-08T22:20:24.184Z,62.00
2019-02-08T22:22:52.479Z,62.00
2019-02-08T22:25:25.981Z,61.90
2019-02-08T22:27:54.291Z,62.10
2019-02-08T22:30:24.495Z,61.80
2019-02-08T22:32:54.766Z,62.00
2019-02-08T22:35:24.424Z,62.50
2019-02-08T22:37:52.708Z,62.30
2019-02-08T22:40:25.440Z,61.70
2019-02-08T22:42:53.690Z,61.60
2019-02-08T22:45:24.944Z,61.20
2019-02-08T22:47:53.204Z,61.70
2019-02-08T22:50:21.462Z,61.50
2019-02-08T22:52:49.743Z,61.50
2019-02-08T22:55:23.754Z,61.50
2019-02-08T22:57:52.026Z,61.50
2019-02-08T23:00:36.706Z,61.70
2019-02-08T23:03:07.230Z,61.30
2019-02-08T23:05:35.557Z,61.60
2019-02-08T23:08:04.883Z,61.40
2019-02-08T23:10:33.503Z,61.10
2019-02-08T23:13:01.810Z,61.50
2019-02-08T23:15:30.148Z,61.20
2019-02-08T23:17:58.406Z,61.40
2019-02-08T23:20:26.746Z,61.10
2019-02-08T23:22:55.076Z,61.00
2019-02-08T23:25:23.395Z,61.20
2019-02-08T23:27:51.682Z,61.00
2019-02-08T23:30:21.478Z,61.40
2019-02-08T23:32:49.754Z,61.70
2019-02-08T23:35:18.097Z,61.40
2019-02-08T23:37:46.378Z,61.50
2019-02-08T23:40:16.181Z,61.70
2019-02-08T23:42:44.452Z,61.70
2019-02-08T23:45:15.534Z,61.40
2019-02-08T23:47:43.102Z,61.70
2019-02-08T23:50:16.815Z,61.50
2019-02-08T23:52:45.086Z,61.70
2019-02-08T23:55:26.626Z,62.00
2019-02-08T23:57:54.886Z,62.10
